AIRPORT ID: S03

DATE: 2024-05-27 ZULU TIME: 21.55 LOCAL TIME: 14.55


METAR KS03 272155Z AUTO 25010G16KT 10SM 26/10 A3003

ALTIMETER: A3003 Q1017

DENSITY ALT: 3300 Ft

WIND DIRECT: 270

WIND SPEED: 10 Gust

WIND CONDITIONS:

VISIBILTY: 10SM 9999M

TEMPERATURE: 78 F 26 C

DEW POINT: 50 F 10 C

HUMID: 38%

LCL: Above 5,000 feet

RADIO CHECK: 0

ADVISARIES: 2

GREETINGS: 0

CONVERSATIONS: 5